Time;durP1;ratioP1;P1;durP2;ratioP2;P2;SDS_P1;SDS_P2;PMS_P1;PMS_P2;Temp;Humidity;BMP_temperature;BMP_pressure;BME280_temperature;BME280_humidity;BME280_pressure;Samples;Min_cycle;Max_cycle;Signal;HPM_P1;HPM_P2
2023/06/03 00:02:14;;;;;;;10.30;4.80;;;12.80;99.90;;;;;;5092478;28;20479;-72
2023/06/03 00:04:41;;;;;;;8.77;4.33;;;12.80;99.90;;;;;;5092434;28;20455;-72
2023/06/03 00:07:09;;;;;;;10.63;4.73;;;12.80;99.90;;;;;;5092487;28;20466;-72
2023/06/03 00:09:36;;;;;;;6.90;4.40;;;12.70;99.90;;;;;;5093116;28;20872;-72
2023/06/03 00:12:03;;;;;;;13.33;4.47;;;12.70;99.90;;;;;;5092660;28;20471;-72
2023/06/03 00:14:29;;;;;;;9.70;4.60;;;12.70;99.90;;;;;;5092981;28;20452;-72
2023/06/03 00:16:58;;;;;;;11.70;4.80;;;12.70;99.90;;;;;;5091911;28;20447;-72
2023/06/03 00:19:24;;;;;;;11.10;4.97;;;12.70;99.90;;;;;;5092336;28;20581;-72
2023/06/03 00:21:53;;;;;;;10.40;4.50;;;12.70;99.90;;;;;;5090981;28;20474;-72
2023/06/03 00:24:23;;;;;;;9.23;4.80;;;12.60;99.90;;;;;;5092392;28;20860;-72
2023/06/03 00:26:50;;;;;;;12.30;4.80;;;12.60;99.90;;;;;;5092692;28;20853;-72
2023/06/03 00:29:17;;;;;;;10.43;5.27;;;12.60;99.90;;;;;;5092543;28;20451;-72
2023/06/03 00:31:43;;;;;;;5.60;4.23;;;12.60;99.90;;;;;;5092187;28;20525;-72
2023/06/03 00:34:10;;;;;;;8.90;4.90;;;12.50;99.90;;;;;;5092163;28;20451;-72
2023/06/03 00:36:37;;;;;;;16.17;5.30;;;12.50;99.90;;;;;;5092397;28;20516;-72
2023/06/03 00:39:04;;;;;;;14.30;5.40;;;12.40;99.90;;;;;;5091466;28;21071;-72
2023/06/03 00:41:32;;;;;;;12.97;5.17;;;12.40;99.90;;;;;;5091953;28;20471;-72
2023/06/03 00:43:58;;;;;;;9.23;5.13;;;12.30;99.90;;;;;;5092197;28;20450;-72
2023/06/03 00:46:25;;;;;;;11.13;5.97;;;12.20;99.90;;;;;;5092197;28;20454;-72
2023/06/03 00:48:52;;;;;;;9.57;5.27;;;12.20;99.90;;;;;;5091980;28;20938;-72
2023/06/03 00:51:19;;;;;;;8.80;5.40;;;12.20;99.90;;;;;;5091406;28;20470;-72
2023/06/03 00:53:47;;;;;;;12.63;5.17;;;12.20;99.90;;;;;;5092196;28;20512;-72
2023/06/03 00:56:16;;;;;;;8.23;5.20;;;12.10;99.90;;;;;;5090518;28;20547;-72
2023/06/03 00:58:44;;;;;;;17.33;5.20;;;12.10;99.90;;;;;;5089805;28;20446;-72
2023/06/03 01:01:13;;;;;;;12.73;4.73;;;12.00;99.90;;;;;;5090570;28;20544;-72
2023/06/03 01:03:42;;;;;;;14.00;5.17;;;12.00;99.90;;;;;;5091832;28;20459;-72
2023/06/03 01:06:16;;;;;;;9.47;5.40;;;12.00;99.90;;;;;;5087736;28;20901;-72
2023/06/03 01:09:05;;;;;;;5.60;5.00;;;11.90;99.90;;;;;;5091264;28;20503;-72
2023/06/03 01:11:43;;;;;;;7.17;4.90;;;11.90;99.90;;;;;;5087350;28;20478;-72
2023/06/03 01:14:18;;;;;;;10.03;4.80;;;11.80;99.90;;;;;;5091120;28;20443;-72
2023/06/03 01:16:47;;;;;;;8.80;4.37;;;11.70;99.90;;;;;;5089407;28;20443;-72
2023/06/03 01:19:28;;;;;;;9.03;5.17;;;11.80;99.90;;;;;;5090562;28;20473;-72
2023/06/03 01:22:00;;;;;;;6.73;4.57;;;11.80;99.90;;;;;;5088424;28;20471;-72
2023/06/03 01:24:30;;;;;;;9.63;4.97;;;11.80;99.90;;;;;;5091334;28;20462;-72
2023/06/03 01:26:57;;;;;;;19.03;5.17;;;11.80;99.90;;;;;;5090989;28;20549;-72
2023/06/03 01:29:24;;;;;;;9.10;4.97;;;11.70;99.90;;;;;;5091163;28;20447;-72
2023/06/03 01:31:52;;;;;;;12.60;5.10;;;11.70;99.90;;;;;;5089853;28;20474;-72
2023/06/03 01:34:18;;;;;;;15.80;5.43;;;11.60;99.90;;;;;;5090465;28;20451;-72
2023/06/03 01:36:45;;;;;;;9.53;5.00;;;11.60;99.90;;;;;;5090435;28;20512;-71
2023/06/03 01:39:12;;;;;;;9.73;4.37;;;11.50;99.90;;;;;;5090794;28;20531;-72
2023/06/03 01:41:42;;;;;;;9.23;4.47;;;11.50;99.90;;;;;;5090328;28;20475;-72
2023/06/03 01:44:09;;;;;;;23.50;5.23;;;11.50;99.90;;;;;;5090840;28;20530;-72
2023/06/03 01:46:36;;;;;;;13.97;5.13;;;11.50;99.90;;;;;;5089770;28;20529;-72
2023/06/03 01:49:03;;;;;;;8.63;4.90;;;11.50;99.90;;;;;;5090428;28;20939;-72
2023/06/03 01:51:30;;;;;;;6.60;4.60;;;11.40;99.90;;;;;;5090062;28;20483;-72
2023/06/03 01:53:56;;;;;;;6.57;4.70;;;11.40;99.90;;;;;;5090177;28;20455;-72
2023/06/03 01:56:23;;;;;;;14.10;4.80;;;11.30;99.90;;;;;;5090004;28;20452;-71
2023/06/03 01:58:51;;;;;;;8.17;5.10;;;11.30;99.90;;;;;;5089890;28;20458;-72
2023/06/03 02:01:18;;;;;;;10.77;4.77;;;11.20;99.90;;;;;;5089530;28;20486;-72
2023/06/03 02:03:44;;;;;;;8.00;4.70;;;11.20;99.90;;;;;;5089612;28;20541;-72
2023/06/03 02:06:14;;;;;;;10.87;5.10;;;11.20;99.90;;;;;;5090206;28;20447;-72
2023/06/03 02:08:41;;;;;;;7.10;4.63;;;11.10;99.90;;;;;;5089689;28;20465;-72
2023/06/03 02:11:08;;;;;;;11.90;4.53;;;11.10;99.90;;;;;;5090214;28;20447;-72
2023/06/03 02:13:34;;;;;;;11.10;4.53;;;11.00;99.90;;;;;;5090329;28;20504;-72
2023/06/03 02:16:03;;;;;;;7.77;4.30;;;11.00;99.90;;;;;;5089510;28;20872;-72
2023/06/03 02:18:31;;;;;;;9.37;4.93;;;11.00;99.90;;;;;;5090303;28;20465;-72
2023/06/03 02:20:58;;;;;;;6.10;4.67;;;10.90;99.90;;;;;;5090178;28;20532;-71
2023/06/03 02:23:25;;;;;;;8.23;5.10;;;10.90;99.90;;;;;;5089938;28;20503;-72
2023/06/03 02:25:51;;;;;;;10.37;5.60;;;10.90;99.90;;;;;;5090028;28;20554;-72
2023/06/03 02:28:22;;;;;;;7.87;5.00;;;10.80;99.90;;;;;;5090162;28;20942;-72
2023/06/03 02:30:49;;;;;;;10.10;5.33;;;10.80;99.90;;;;;;5088906;28;20453;-72
2023/06/03 02:33:17;;;;;;;8.47;4.30;;;10.80;99.90;;;;;;5090543;28;20475;-71
2023/06/03 02:35:43;;;;;;;9.53;4.40;;;10.80;99.90;;;;;;5090250;28;20447;-72
2023/06/03 02:38:10;;;;;;;8.17;4.50;;;10.80;99.90;;;;;;5090326;28;20505;-71
2023/06/03 02:40:37;;;;;;;17.87;4.50;;;10.70;99.90;;;;;;5089976;28;20493;-71
2023/06/03 02:43:04;;;;;;;8.87;5.20;;;10.70;99.90;;;;;;5089704;28;20475;-71
2023/06/03 02:45:30;;;;;;;13.67;4.40;;;10.70;99.90;;;;;;5090343;28;20489;-72
2023/06/03 02:47:57;;;;;;;7.27;4.23;;;10.60;99.90;;;;;;5094530;28;20488;-72
2023/06/03 02:50:25;;;;;;;12.17;4.50;;;10.60;99.90;;;;;;5092466;28;20455;-72
2023/06/03 02:52:52;;;;;;;13.03;4.77;;;10.50;99.90;;;;;;5093999;28;20515;-72
2023/06/03 02:55:19;;;;;;;13.40;4.77;;;10.50;99.90;;;;;;5093794;28;20447;-72
2023/06/03 02:57:45;;;;;;;10.03;5.00;;;10.40;99.90;;;;;;5093815;28;20516;-71
2023/06/03 03:00:13;;;;;;;6.00;4.50;;;10.40;99.90;;;;;;5093334;28;20483;-72
2023/06/03 03:02:40;;;;;;;10.30;5.23;;;10.40;99.90;;;;;;5093899;28;20502;-72
2023/06/03 03:05:07;;;;;;;7.73;4.90;;;10.30;99.90;;;;;;5093271;28;20451;-72
2023/06/03 03:07:36;;;;;;;9.40;4.60;;;10.30;99.90;;;;;;5094212;28;20459;-72
2023/06/03 03:10:05;;;;;;;7.13;5.20;;;10.30;99.90;;;;;;5091629;28;20450;-72
2023/06/03 03:12:31;;;;;;;13.07;4.73;;;10.20;99.90;;;;;;5092241;28;20471;-71
2023/06/03 03:14:58;;;;;;;6.47;4.40;;;10.20;99.90;;;;;;5092970;28;20463;-71
2023/06/03 03:17:25;;;;;;;5.70;4.70;;;10.10;99.90;;;;;;5092654;28;20513;-71
2023/06/03 03:19:51;;;;;;;5.00;4.50;;;10.10;99.90;;;;;;5088785;28;20458;-72
2023/06/03 03:22:18;;;;;;;10.10;4.83;;;10.10;99.90;;;;;;5092374;28;20994;-72
2023/06/03 03:24:50;;;;;;;8.70;4.50;;;10.10;99.90;;;;;;5092578;28;20511;-72
2023/06/03 03:27:16;;;;;;;4.57;3.97;;;10.10;99.90;;;;;;5086098;28;20508;-72
2023/06/03 03:29:44;;;;;;;7.20;4.40;;;10.10;99.90;;;;;;5093241;28;20447;-71
2023/06/03 03:32:12;;;;;;;7.50;4.40;;;10.10;99.90;;;;;;5092863;28;20975;-72
2023/06/03 03:34:39;;;;;;;7.87;4.40;;;10.10;99.90;;;;;;5088331;28;20509;-72
2023/06/03 03:37:06;;;;;;;9.03;4.10;;;10.00;99.90;;;;;;5093154;28;20447;-72
2023/06/03 03:39:32;;;;;;;7.73;4.20;;;10.10;99.90;;;;;;5092533;28;20864;-72
2023/06/03 03:42:00;;;;;;;6.07;3.83;;;10.00;99.90;;;;;;5092755;28;20495;-72
2023/06/03 03:44:31;;;;;;;9.90;4.50;;;10.00;99.90;;;;;;5093010;28;20830;-72
2023/06/03 03:47:01;;;;;;;9.17;4.53;;;10.00;99.90;;;;;;5092520;28;20463;-72
2023/06/03 03:49:30;;;;;;;8.70;3.90;;;10.00;99.90;;;;;;5093009;28;20547;-72
2023/06/03 03:51:57;;;;;;;11.03;3.83;;;10.00;99.90;;;;;;5091663;28;20479;-72
2023/06/03 03:54:24;;;;;;;8.40;3.60;;;10.00;99.90;;;;;;5092713;28;20538;-71
2023/06/03 03:56:55;;;;;;;8.53;3.57;;;9.90;99.90;;;;;;5092121;28;20977;-72
2023/06/03 03:59:26;;;;;;;6.93;3.90;;;9.90;99.90;;;;;;5091890;28;20440;-72
2023/06/03 04:01:53;;;;;;;10.23;3.63;;;10.00;99.90;;;;;;5090912;28;20848;-72
2023/06/03 04:04:38;;;;;;;6.50;3.60;;;10.00;99.90;;;;;;5091290;28;20481;-72
2023/06/03 04:07:05;;;;;;;4.83;3.60;;;10.00;99.90;;;;;;5090364;28;20938;-71
2023/06/03 04:09:33;;;;;;;6.20;3.90;;;10.00;99.90;;;;;;5092819;28;20460;-72
2023/06/03 04:12:01;;;;;;;4.97;3.60;;;10.00;99.90;;;;;;5092302;28;20521;-71
2023/06/03 04:14:44;;;;;;;4.60;3.30;;;10.10;99.90;;;;;;5092222;28;20460;-72
2023/06/03 04:17:13;;;;;;;16.07;3.63;;;10.00;99.90;;;;;;5091528;28;20465;-71
2023/06/03 04:19:41;;;;;;;7.60;3.60;;;10.00;99.90;;;;;;5091583;28;20484;-72
2023/06/03 04:22:10;;;;;;;9.10;3.47;;;10.10;99.90;;;;;;5091265;28;20858;-71
2023/06/03 04:24:37;;;;;;;8.13;3.00;;;10.10;99.90;;;;;;5091629;28;20455;-71
2023/06/03 04:27:06;;;;;;;5.50;3.30;;;10.20;99.90;;;;;;5091847;28;20501;-71
2023/06/03 04:29:34;;;;;;;6.13;3.60;;;10.20;99.90;;;;;;5085245;28;20460;-70
2023/06/03 04:32:01;;;;;;;7.70;3.43;;;10.20;99.90;;;;;;5090199;28;20528;-71
2023/06/03 04:34:29;;;;;;;5.07;3.10;;;10.30;99.90;;;;;;5091944;28;20459;-71
2023/06/03 04:36:56;;;;;;;7.33;3.40;;;10.30;99.90;;;;;;5091518;28;20520;-72
2023/06/03 04:39:22;;;;;;;5.53;3.10;;;10.40;99.90;;;;;;5091252;28;20452;-72
2023/06/03 04:41:50;;;;;;;6.83;3.20;;;10.50;99.90;;;;;;5091361;28;20994;-72
2023/06/03 04:44:17;;;;;;;7.70;3.00;;;10.50;99.90;;;;;;5091409;28;20826;-72
2023/06/03 04:46:45;;;;;;;4.40;3.30;;;10.60;99.90;;;;;;5089972;28;20448;-72
2023/06/03 04:49:12;;;;;;;9.40;3.23;;;10.70;99.90;;;;;;5090658;28;20486;-72
2023/06/03 04:51:40;;;;;;;5.10;3.13;;;10.70;99.90;;;;;;5091471;28;20828;-72
2023/06/03 04:54:07;;;;;;;6.60;3.60;;;10.80;99.90;;;;;;5091673;28;20486;-72
2023/06/03 04:56:33;;;;;;;8.43;3.37;;;10.90;99.90;;;;;;5090365;28;20453;-72
2023/06/03 04:59:03;;;;;;;4.73;3.00;;;11.00;99.90;;;;;;5091615;28;20872;-72
2023/06/03 05:01:31;;;;;;;8.53;3.80;;;11.10;99.90;;;;;;5091148;28;20495;-72
2023/06/03 05:03:59;;;;;;;6.47;3.40;;;11.20;99.90;;;;;;5090372;28;20905;-72
2023/06/03 05:06:26;;;;;;;13.10;3.80;;;11.30;99.90;;;;;;5091196;28;20501;-72
2023/06/03 05:08:53;;;;;;;6.87;3.47;;;11.40;99.90;;;;;;5090036;28;20451;-72
2023/06/03 05:11:20;;;;;;;4.90;2.80;;;11.40;99.90;;;;;;5089951;28;20455;-72
2023/06/03 05:13:47;;;;;;;2.70;2.50;;;11.50;99.90;;;;;;5085779;28;20465;-72
2023/06/03 05:16:14;;;;;;;3.87;2.60;;;11.60;99.90;;;;;;5090487;28;20519;-72
2023/06/03 05:18:41;;;;;;;6.67;2.73;;;11.70;99.90;;;;;;5090813;28;20507;-72
2023/06/03 05:21:09;;;;;;;3.60;2.20;;;11.80;99.90;;;;;;5090147;28;20491;-72
2023/06/03 05:23:36;;;;;;;2.93;2.70;;;11.90;99.90;;;;;;5090625;28;20983;-71
2023/06/03 05:26:02;;;;;;;8.70;3.00;;;12.00;99.90;;;;;;5091544;28;20463;-70
2023/06/03 05:28:29;;;;;;;2.60;2.40;;;12.20;99.90;;;;;;5091163;28;20958;-71
2023/06/03 05:30:56;;;;;;;3.40;2.67;;;12.30;99.90;;;;;;5089844;28;20827;-71
2023/06/03 05:33:26;;;;;;;3.57;2.63;;;12.40;99.90;;;;;;5089388;28;20462;-70
2023/06/03 05:35:53;;;;;;;6.53;2.87;;;12.50;99.90;;;;;;5089757;28;20456;-70
2023/06/03 05:38:21;;;;;;;3.00;2.37;;;12.60;99.90;;;;;;5089862;28;20453;-71
2023/06/03 05:40:48;;;;;;;6.73;2.60;;;12.80;99.90;;;;;;5090030;28;21210;-70
2023/06/03 05:43:16;;;;;;;6.43;2.22;;;13.00;99.90;;;;;;5089196;28;20519;-71
2023/06/03 05:45:43;;;;;;;3.97;2.40;;;13.10;99.90;;;;;;5089942;28;20207;-71
2023/06/03 05:48:10;;;;;;;8.63;2.57;;;13.30;99.90;;;;;;5090508;28;20452;-71
2023/06/03 05:50:38;;;;;;;9.77;2.50;;;13.40;99.90;;;;;;5089708;28;20455;-71
2023/06/03 05:53:04;;;;;;;3.10;2.30;;;13.50;99.90;;;;;;5090151;28;20471;-72
2023/06/03 05:55:32;;;;;;;6.43;2.37;;;13.70;99.90;;;;;;5087637;28;20454;-71
2023/06/03 05:57:59;;;;;;;4.30;2.30;;;13.80;99.90;;;;;;5088509;28;20456;-71
2023/06/03 06:00:27;;;;;;;8.40;1.90;;;14.00;99.90;;;;;;5088889;28;20454;-72
2023/06/03 06:02:54;;;;;;;6.77;2.53;;;14.10;99.90;;;;;;5090840;28;20989;-72
2023/06/03 06:05:21;;;;;;;2.20;2.00;;;14.20;99.90;;;;;;5089816;28;20452;-72
2023/06/03 06:07:47;;;;;;;3.00;2.20;;;14.40;99.90;;;;;;5090338;28;20459;-71
2023/06/03 06:10:14;;;;;;;4.40;1.50;;;14.60;99.90;;;;;;5090313;28;20923;-72
2023/06/03 06:12:42;;;;;;;3.77;2.10;;;14.70;99.90;;;;;;5090102;28;20460;-72
2023/06/03 06:15:10;;;;;;;3.57;2.37;;;14.80;99.90;;;;;;5089964;28;20492;-72
2023/06/03 06:17:37;;;;;;;7.43;2.90;;;14.90;99.90;;;;;;5090128;28;20906;-72
2023/06/03 06:20:05;;;;;;;5.60;2.60;;;15.10;99.90;;;;;;5086974;28;20474;-71
2023/06/03 06:22:32;;;;;;;3.17;1.87;;;15.30;99.90;;;;;;5095011;28;20489;-71
2023/06/03 06:24:59;;;;;;;6.43;2.17;;;15.40;99.90;;;;;;5094142;28;20481;-72
2023/06/03 06:27:25;;;;;;;2.40;2.20;;;15.50;99.90;;;;;;5087268;28;20447;-72
2023/06/03 06:29:54;;;;;;;5.80;1.97;;;15.40;99.90;;;;;;5092572;28;20468;-72
2023/06/03 06:32:24;;;;;;;5.63;1.97;;;15.40;99.90;;;;;;5093655;28;20466;-71
2023/06/03 06:34:51;;;;;;;2.90;1.87;;;15.60;99.90;;;;;;5094636;28;20450;-72
2023/06/03 06:37:19;;;;;;;3.30;1.80;;;15.70;99.90;;;;;;5094236;28;20442;-72
2023/06/03 06:39:48;;;;;;;2.53;1.80;;;15.70;99.90;;;;;;5094267;28;20509;-72
2023/06/03 06:42:22;;;;;;;2.07;1.80;;;16.00;99.90;;;;;;5093805;28;21007;-71
2023/06/03 06:44:50;;;;;;;4.03;2.20;;;16.10;99.90;;;;;;5094309;28;20794;-71
2023/06/03 06:47:22;;;;;;;4.63;2.13;;;16.20;99.90;;;;;;5095630;28;20946;-72
2023/06/03 06:49:49;;;;;;;3.03;2.20;;;16.30;99.90;;;;;;5092534;28;20446;-71
2023/06/03 06:52:16;;;;;;;4.50;2.07;;;16.30;99.90;;;;;;5093940;28;20483;-71
2023/06/03 06:54:43;;;;;;;2.57;1.90;;;16.50;99.90;;;;;;5094274;28;20447;-71
2023/06/03 06:57:10;;;;;;;3.90;2.40;;;16.70;99.90;;;;;;5093428;28;21358;-71
2023/06/03 06:59:36;;;;;;;5.53;1.90;;;16.80;99.90;;;;;;5091484;28;20455;-71
2023/06/03 07:02:03;;;;;;;10.17;2.10;;;17.00;99.90;;;;;;5093414;28;20490;-72
2023/06/03 07:04:31;;;;;;;2.77;2.10;;;17.30;99.90;;;;;;5093413;28;20509;-72
2023/06/03 07:06:58;;;;;;;2.07;1.97;;;17.60;99.90;;;;;;5093535;28;20447;-72
2023/06/03 07:09:25;;;;;;;8.33;2.30;;;17.80;99.90;;;;;;5092702;28;20450;-71
2023/06/03 07:11:51;;;;;;;3.17;2.07;;;17.70;99.90;;;;;;5093542;28;20474;-72
2023/06/03 07:14:18;;;;;;;2.40;2.20;;;17.70;99.90;;;;;;5093547;28;20508;-72
2023/06/03 07:16:46;;;;;;;4.77;2.20;;;17.70;99.90;;;;;;5093124;28;20530;-71
2023/06/03 07:19:13;;;;;;;3.60;2.23;;;17.90;99.90;;;;;;5093035;28;20538;-72
2023/06/03 07:21:41;;;;;;;9.10;2.33;;;18.00;99.90;;;;;;5092459;28;20538;-72
2023/06/03 07:24:11;;;;;;;2.50;2.30;;;18.10;99.90;;;;;;5091699;28;20446;-72
2023/06/03 07:26:39;;;;;;;4.40;2.57;;;18.20;99.90;;;;;;5091441;28;20491;-72
2023/06/03 07:29:06;;;;;;;3.80;2.40;;;18.30;99.90;;;;;;5091127;28;20507;-72
2023/06/03 07:31:36;;;;;;;5.03;2.10;;;18.30;99.90;;;;;;5089721;28;20438;-72
2023/06/03 07:34:04;;;;;;;6.60;2.50;;;18.50;99.90;;;;;;5092854;28;20453;-71
2023/06/03 07:36:30;;;;;;;5.13;2.47;;;18.70;99.90;;;;;;5091886;28;20802;-73
2023/06/03 07:39:05;;;;;;;5.77;2.43;;;18.60;99.90;;;;;;5093166;28;20458;-71
2023/06/03 07:41:38;;;;;;;7.57;2.23;;;18.70;99.90;;;;;;5091471;28;20490;-71
2023/06/03 07:44:10;;;;;;;3.63;2.50;;;18.90;99.90;;;;;;5093612;28;20520;-71
2023/06/03 07:46:39;;;;;;;2.50;2.17;;;19.20;99.90;;;;;;5093478;28;20421;-71
2023/06/03 07:49:08;;;;;;;5.87;2.83;;;19.30;99.90;;;;;;5092588;28;20450;-71
2023/06/03 07:51:36;;;;;;;3.47;2.20;;;19.40;99.90;;;;;;5092337;28;20861;-71
2023/06/03 07:54:05;;;;;;;4.20;2.43;;;19.40;99.90;;;;;;5093277;28;20422;-72
2023/06/03 07:56:33;;;;;;;7.10;2.43;;;19.50;99.90;;;;;;5092897;28;20446;-71
2023/06/03 07:59:03;;;;;;;2.80;2.20;;;19.80;99.90;;;;;;5092595;28;20425;-72
2023/06/03 08:01:30;;;;;;;7.03;2.37;;;20.00;99.90;;;;;;5086682;28;20449;-71
2023/06/03 08:03:57;;;;;;;3.20;2.30;;;20.10;99.90;;;;;;5044132;28;20448;-72
2023/06/03 08:06:27;;;;;;;3.00;2.37;;;20.20;99.90;;;;;;5029130;28;20535;-70
2023/06/03 08:08:56;;;;;;;6.47;2.50;;;20.30;99.90;;;;;;5030410;28;20440;-70
2023/06/03 08:11:25;;;;;;;4.80;2.40;;;20.40;99.90;;;;;;5031283;28;20435;-70
2023/06/03 08:13:54;;;;;;;2.67;2.47;;;20.60;99.90;;;;;;5031321;28;20468;-70
2023/06/03 08:16:21;;;;;;;6.57;2.50;;;20.70;99.90;;;;;;5031728;28;20424;-70
2023/06/03 08:18:50;;;;;;;3.20;2.50;;;20.80;99.90;;;;;;5032425;28;20463;-71
2023/06/03 08:21:18;;;;;;;7.53;2.70;;;21.00;99.90;;;;;;5031547;28;20946;-71
2023/06/03 08:23:45;;;;;;;4.43;2.10;;;21.20;99.90;;;;;;5032497;28;20499;-71
2023/06/03 08:26:12;;;;;;;3.93;2.93;;;21.20;99.90;;;;;;5031594;28;20830;-72
2023/06/03 08:28:40;;;;;;;4.10;2.30;;;21.30;99.90;;;;;;5032425;28;20428;-71
2023/06/03 08:31:07;;;;;;;3.77;2.63;;;21.30;99.90;;;;;;5031671;28;20459;-72
2023/06/03 08:33:34;;;;;;;4.67;2.50;;;21.40;99.90;;;;;;5031171;28;20440;-72
2023/06/03 08:36:01;;;;;;;5.73;2.90;;;21.50;99.90;;;;;;5031613;28;20456;-72
2023/06/03 08:38:28;;;;;;;4.37;3.00;;;21.50;99.90;;;;;;5032106;28;20515;-71
2023/06/03 08:40:55;;;;;;;5.33;3.20;;;21.60;99.90;;;;;;5029900;28;20457;-71
2023/06/03 08:43:23;;;;;;;3.80;2.70;;;21.60;99.90;;;;;;5026996;28;20559;-70
2023/06/03 08:45:56;;;;;;;4.60;2.40;;;21.40;99.90;;;;;;5028637;28;20819;-70
2023/06/03 08:48:33;;;;;;;2.77;2.57;;;21.30;99.90;;;;;;5029512;28;20497;-70
2023/06/03 08:51:05;;;;;;;4.83;2.30;;;21.40;99.90;;;;;;5029871;28;20535;-71
2023/06/03 08:53:46;;;;;;;6.40;2.57;;;21.60;99.90;;;;;;5029596;28;20442;-71
2023/06/03 08:56:16;;;;;;;3.87;2.67;;;21.60;99.90;;;;;;5030677;28;20774;-70
2023/06/03 08:58:46;;;;;;;19.50;3.00;;;21.90;99.90;;;;;;5024767;28;20543;-70
2023/06/03 09:01:17;;;;;;;3.63;2.70;;;22.10;99.90;;;;;;5028965;28;20511;-70
2023/06/03 09:03:44;;;;;;;5.93;2.57;;;22.20;99.90;;;;;;5029421;28;20485;-72
2023/06/03 09:06:12;;;;;;;8.17;2.90;;;22.20;99.90;;;;;;5027785;28;20424;-72
2023/06/03 09:08:40;;;;;;;5.53;2.60;;;22.20;99.90;;;;;;5029849;28;20461;-72
2023/06/03 09:11:10;;;;;;;7.83;3.13;;;22.20;99.90;;;;;;5030198;28;20515;-72
2023/06/03 09:13:37;;;;;;;5.83;2.70;;;22.50;99.90;;;;;;5030574;28;20996;-73
2023/06/03 09:16:04;;;;;;;4.30;2.60;;;22.70;99.90;;;;;;5025721;28;20464;-71
2023/06/03 09:18:33;;;;;;;3.30;2.63;;;23.00;99.90;;;;;;5029880;28;20449;-71
2023/06/03 09:21:00;;;;;;;5.63;2.70;;;23.20;99.90;;;;;;5028887;28;20457;-72
2023/06/03 09:23:27;;;;;;;6.47;2.63;;;23.20;99.90;;;;;;5027674;28;20493;-72
2023/06/03 09:25:54;;;;;;;7.27;2.90;;;23.00;99.90;;;;;;5031005;28;20459;-72
2023/06/03 09:28:21;;;;;;;9.30;2.67;;;23.10;99.90;;;;;;5030577;28;20449;-72
2023/06/03 09:30:48;;;;;;;6.23;2.90;;;23.10;99.90;;;;;;5030192;28;20961;-72
2023/06/03 09:33:16;;;;;;;3.10;2.73;;;23.20;99.90;;;;;;5029683;28;20473;-71
2023/06/03 09:35:44;;;;;;;9.43;2.57;;;23.10;99.90;;;;;;5029235;28;20457;-71
2023/06/03 09:38:10;;;;;;;6.87;2.60;;;23.40;99.90;;;;;;5029614;28;20511;-72
2023/06/03 09:40:37;;;;;;;6.63;2.57;;;23.60;99.90;;;;;;5030287;28;20871;-72
2023/06/03 09:43:10;;;;;;;7.50;2.77;;;23.60;99.90;;;;;;5029598;28;20867;-72
2023/06/03 09:45:37;;;;;;;7.10;2.90;;;23.70;99.90;;;;;;5029653;28;20457;-71
2023/06/03 09:48:04;;;;;;;6.90;3.40;;;23.70;99.90;;;;;;5030488;28;20913;-72
2023/06/03 09:50:31;;;;;;;7.90;2.90;;;23.90;99.90;;;;;;5029894;28;20519;-72
2023/06/03 09:53:01;;;;;;;3.60;2.83;;;24.10;99.90;;;;;;5029355;28;20468;-71
2023/06/03 09:55:32;;;;;;;6.70;3.20;;;24.00;99.90;;;;;;5028725;28;20503;-73
2023/06/03 09:58:05;;;;;;;6.97;3.40;;;23.80;99.90;;;;;;5027187;28;20454;-72
2023/06/03 10:00:33;;;;;;;6.80;3.50;;;23.50;99.90;;;;;;5027337;28;20459;-72
2023/06/03 10:03:08;;;;;;;9.27;3.00;;;23.80;99.90;;;;;;5029589;28;20515;-72
2023/06/03 10:05:35;;;;;;;7.30;2.90;;;24.20;99.90;;;;;;5029369;28;20456;-72
2023/06/03 10:08:04;;;;;;;5.23;2.70;;;24.50;99.90;;;;;;5025769;28;20945;-73
2023/06/03 10:10:33;;;;;;;11.03;2.70;;;24.50;99.90;;;;;;5028556;28;20460;-72
2023/06/03 10:13:17;;;;;;;3.10;2.80;;;24.50;99.90;;;;;;5029138;28;20484;-72
2023/06/03 10:15:44;;;;;;;8.20;3.10;;;24.30;99.90;;;;;;5026849;28;20454;-72
2023/06/03 10:18:10;;;;;;;29.80;4.93;;;24.40;99.90;;;;;;5029929;28;20453;-70
2023/06/03 10:20:38;;;;;;;7.10;2.57;;;24.60;99.90;;;;;;5028985;28;20856;-72
2023/06/03 10:23:08;;;;;;;5.77;3.23;;;24.80;99.90;;;;;;5023666;28;21067;-71
2023/06/03 10:25:41;;;;;;;4.80;2.77;;;24.80;99.90;;;;;;5029137;28;20588;-71
2023/06/03 10:28:07;;;;;;;2.97;2.23;;;24.80;99.90;;;;;;5027409;28;20879;-71
2023/06/03 10:30:36;;;;;;;6.37;3.30;;;24.70;99.90;;;;;;5028604;28;21016;-71
2023/06/03 10:33:04;;;;;;;7.13;3.20;;;24.60;99.90;;;;;;5029259;28;20515;-71
2023/06/03 10:35:32;;;;;;;7.73;3.13;;;24.50;99.90;;;;;;5028735;28;20461;-72
2023/06/03 10:38:00;;;;;;;9.00;3.60;;;24.40;99.90;;;;;;5028100;28;20449;-72
2023/06/03 10:40:29;;;;;;;4.20;3.03;;;24.30;99.90;;;;;;5029514;28;20537;-72
2023/06/03 10:42:56;;;;;;;5.20;3.00;;;24.40;99.90;;;;;;5027102;28;20903;-72
2023/06/03 10:45:23;;;;;;;5.07;2.93;;;24.40;99.90;;;;;;5028658;28;20457;-72
2023/06/03 10:47:53;;;;;;;4.87;2.90;;;24.70;99.90;;;;;;5029414;28;21008;-72
2023/06/03 10:50:30;;;;;;;5.77;2.70;;;24.80;99.90;;;;;;5027585;28;20457;-72
2023/06/03 10:53:14;;;;;;;4.67;3.00;;;24.80;99.90;;;;;;5029574;28;20579;-72
2023/06/03 10:55:55;;;;;;;7.37;2.90;;;24.80;99.90;;;;;;5029906;28;20453;-72
2023/06/03 10:58:24;;;;;;;4.00;2.60;;;24.70;99.30;;;;;;5026663;28;20449;-72
2023/06/03 11:00:56;;;;;;;5.53;3.30;;;24.60;99.90;;;;;;5029313;28;20453;-72
2023/06/03 11:03:24;;;;;;;6.50;3.60;;;24.60;99.20;;;;;;5029289;28;20525;-71
2023/06/03 11:05:51;;;;;;;6.80;2.83;;;24.70;99.90;;;;;;5030604;28;20504;-70
2023/06/03 11:08:55;;;;;;;4.73;3.00;;;24.70;99.00;;;;;;5033743;28;20503;-71
2023/06/03 11:14:55;;;;;;;9.13;3.43;;;24.90;99.90;;;;;;5085574;28;20529;-71
2023/06/03 11:17:23;;;;;;;4.90;3.47;;;25.10;99.90;;;;;;5078520;28;20455;-71
2023/06/03 11:19:51;;;;;;;8.50;3.03;;;25.20;98.70;;;;;;5078609;28;20504;-71
2023/06/03 11:22:41;;;;;;;8.20;4.40;;;25.30;98.40;;;;;;5069244;28;20469;-70
2023/06/03 11:25:09;;;;;;;7.83;3.10;;;25.20;99.10;;;;;;5071457;28;20502;-70
2023/06/03 11:27:37;;;;;;;9.17;3.10;;;25.20;98.10;;;;;;5080648;28;20459;-71
2023/06/03 11:30:07;;;;;;;7.83;2.43;;;25.20;98.10;;;;;;5054646;28;21029;-71
2023/06/03 11:32:36;;;;;;;5.07;2.90;;;25.00;96.80;;;;;;5069186;28;20494;-71
2023/06/03 11:35:27;;;;;;;5.27;3.13;;;24.90;97.30;;;;;;5060906;28;20964;-71
2023/06/03 11:37:54;;;;;;;8.87;2.90;;;24.90;97.00;;;;;;5054104;28;20459;-71
2023/06/03 11:40:21;;;;;;;7.50;2.93;;;25.00;98.10;;;;;;5069182;28;20459;-71
2023/06/03 11:43:10;;;;;;;6.40;3.00;;;25.00;99.20;;;;;;5061718;28;20899;-68
2023/06/03 11:45:38;;;;;;;11.67;3.00;;;25.20;99.80;;;;;;5054174;28;20456;-69
2023/06/03 11:48:07;;;;;;;11.33;3.07;;;25.50;99.30;;;;;;5059029;28;20452;-72
2023/06/03 11:50:46;;;;;;;4.90;3.00;;;25.30;97.30;;;;;;5059530;28;21404;-70
2023/06/03 11:53:28;;;;;;;3.27;2.80;;;25.30;98.10;;;;;;5062697;28;20492;-70
2023/06/03 11:56:05;;;;;;;3.40;2.53;;;25.60;98.50;;;;;;5067633;28;20450;-71
2023/06/03 11:58:31;;;;;;;8.20;2.70;;;25.80;98.20;;;;;;5057033;28;20942;-73
2023/06/03 12:01:07;;;;;;;6.50;3.13;;;25.90;98.10;;;;;;5061037;28;20456;-71
2023/06/03 12:03:34;;;;;;;7.07;3.80;;;25.80;97.50;;;;;;5068613;28;20451;-73
2023/06/03 12:06:03;;;;;;;4.50;2.70;;;25.80;97.40;;;;;;5067417;28;20450;-72
2023/06/03 12:08:43;;;;;;;4.60;3.00;;;25.70;95.80;;;;;;5064481;28;20499;-70
2023/06/03 12:11:09;;;;;;;4.87;2.90;;;25.80;96.60;;;;;;5057072;28;20820;-70
2023/06/03 12:13:41;;;;;;;4.53;2.60;;;25.50;95.20;;;;;;5065261;28;20551;-70
2023/06/03 12:16:09;;;;;;;3.53;2.80;;;25.30;95.50;;;;;;5063571;28;20464;-70
2023/06/03 12:18:35;;;;;;;3.37;2.70;;;24.80;95.00;;;;;;5071172;28;20579;-69
2023/06/03 12:21:20;;;;;;;4.30;3.13;;;24.60;96.10;;;;;;5066418;28;20726;-70
2023/06/03 12:23:47;;;;;;;3.80;2.90;;;24.70;97.00;;;;;;5048294;28;20526;-70
2023/06/03 12:26:14;;;;;;;3.83;2.90;;;25.00;96.60;;;;;;5039967;28;20457;-70
2023/06/03 12:28:41;;;;;;;8.60;3.07;;;25.30;95.50;;;;;;5049820;28;20451;-70
2023/06/03 12:31:14;;;;;;;10.20;3.40;;;25.40;96.10;;;;;;5061609;28;20444;-71
2023/06/03 12:33:41;;;;;;;5.30;3.00;;;25.50;96.00;;;;;;5051413;28;20480;-71
2023/06/03 12:36:08;;;;;;;10.20;2.90;;;25.80;95.10;;;;;;5050589;28;20825;-71
2023/06/03 12:38:35;;;;;;;3.47;2.80;;;25.80;96.00;;;;;;5050008;28;20211;-69
2023/06/03 12:41:09;;;;;;;5.47;2.63;;;26.00;96.40;;;;;;5047083;28;20524;-70
2023/06/03 12:43:35;;;;;;;4.13;3.00;;;26.10;94.70;;;;;;5045291;28;20458;-73
2023/06/03 12:46:16;;;;;;;5.30;2.80;;;26.00;95.40;;;;;;5049889;28;20489;-72
2023/06/03 12:48:44;;;;;;;5.60;3.73;;;26.00;95.00;;;;;;5049840;28;20463;-70
2023/06/03 12:51:22;;;;;;;2.97;2.70;;;26.10;95.90;;;;;;5040711;28;20463;-72
2023/06/03 12:53:49;;;;;;;9.57;7.20;;;26.10;94.20;;;;;;5048790;28;20423;-72
2023/06/03 12:56:16;;;;;;;3.83;2.70;;;26.20;94.60;;;;;;5050237;28;20200;-73
2023/06/03 12:58:43;;;;;;;2.97;2.57;;;26.10;93.70;;;;;;5057929;28;20451;-73